Time;durP1;ratioP1;P1;durP2;ratioP2;P2;SDS_P1;SDS_P2;PMS_P1;PMS_P2;Temp;Humidity;BMP_temperature;BMP_pressure;BME280_temperature;BME280_humidity;BME280_pressure;Samples;Min_cycle;Max_cycle;Signal;HPM_P1;HPM_P2
2021/11/07 00:04:37;;;;;;;10.68;4.88;;;;;;;;;;5034307;28;20033;-58
2021/11/07 00:09:37;;;;;;;5.00;4.32;;;;;;;;;;5034922;28;20037;-58
2021/11/07 00:12:27;;;;;;;6.10;5.18;;;;;;;;;;5036884;28;20025;-58
2021/11/07 00:14:53;;;;;;;5.72;4.55;;;;;;;;;;5039715;28;20048;-58
2021/11/07 00:17:23;;;;;;;6.78;4.65;;;;;;;;;;5039205;28;20034;-58
2021/11/07 00:19:52;;;;;;;6.28;5.20;;;;;;;;;;5036894;28;20049;-58
2021/11/07 00:22:33;;;;;;;9.20;5.57;;;;;;;;;;5039730;28;20065;-58
2021/11/07 00:25:05;;;;;;;6.93;6.15;;;;;;;;;;5038868;28;20025;-58
2021/11/07 00:27:38;;;;;;;6.05;5.43;;;;;;;;;;5037128;28;20034;-58
2021/11/07 00:38:14;;;;;;;5.65;4.72;;;;;;;;;;5036070;28;20068;-58
2021/11/07 00:40:50;;;;;;;6.10;5.00;;;;;;;;;;5037496;28;20632;-58
2021/11/07 00:43:29;;;;;;;6.72;5.35;;;;;;;;;;5036214;28;20029;-57
2021/11/07 00:49:05;;;;;;;13.15;7.53;;;;;;;;;;5004059;28;20057;-58
2021/11/07 00:56:41;;;;;;;8.55;7.25;;;;;;;;;;5036768;28;20034;-58
2021/11/07 01:01:48;;;;;;;7.40;6.13;;;;;;;;;;5038262;28;20029;-58
2021/11/07 01:04:14;;;;;;;9.07;5.95;;;;;;;;;;5036241;28;20053;-58
2021/11/07 01:06:41;;;;;;;9.35;6.75;;;;;;;;;;5035914;28;20088;-58
2021/11/07 01:09:09;;;;;;;9.32;6.97;;;;;;;;;;5036175;28;20025;-58
2021/11/07 01:11:35;;;;;;;8.00;5.78;;;;;;;;;;5035829;28;20041;-58
2021/11/07 01:14:01;;;;;;;9.07;7.20;;;;;;;;;;5038982;28;20040;-58
2021/11/07 01:16:27;;;;;;;7.68;6.03;;;;;;;;;;5035845;28;20022;-58
2021/11/07 01:18:53;;;;;;;7.60;5.32;;;;;;;;;;5036821;28;20039;-58
2021/11/07 01:21:19;;;;;;;7.05;5.65;;;;;;;;;;5033741;28;20033;-57
2021/11/07 01:26:32;;;;;;;8.05;5.70;;;;;;;;;;5037212;28;20553;-58
2021/11/07 01:29:22;;;;;;;7.95;6.20;;;;;;;;;;5034389;28;20025;-59
2021/11/07 01:31:45;;;;;;;6.15;5.55;;;;;;;;;;5032990;28;20041;-58
2021/11/07 01:34:19;;;;;;;9.65;6.57;;;;;;;;;;5038525;28;20060;-58
2021/11/07 01:36:49;;;;;;;10.52;6.68;;;;;;;;;;5035155;28;20610;-58
2021/11/07 01:39:23;;;;;;;6.20;5.50;;;;;;;;;;5036458;28;20495;-58
2021/11/07 01:44:59;;;;;;;11.95;6.28;;;;;;;;;;5035474;28;20091;-58
2021/11/07 01:47:25;;;;;;;15.68;6.53;;;;;;;;;;5034958;28;20045;-58
2021/11/07 01:49:51;;;;;;;9.15;5.78;;;;;;;;;;5039961;28;20033;-58
2021/11/07 01:52:19;;;;;;;12.40;6.25;;;;;;;;;;5034893;28;20033;-58
2021/11/07 01:55:04;;;;;;;7.95;6.45;;;;;;;;;;5037612;28;20029;-58
2021/11/07 01:57:33;;;;;;;7.50;6.05;;;;;;;;;;5034113;28;20033;-58
2021/11/07 02:00:08;;;;;;;8.77;5.90;;;;;;;;;;5034762;28;20051;-58
2021/11/07 02:02:36;;;;;;;10.23;5.95;;;;;;;;;;5036410;28;20057;-58
2021/11/07 02:05:04;;;;;;;8.52;6.55;;;;;;;;;;5035636;28;20029;-57
2021/11/07 02:07:30;;;;;;;9.73;6.55;;;;;;;;;;5035748;28;20025;-58
2021/11/07 02:09:55;;;;;;;4.55;3.78;;;;;;;;;;5037509;28;20094;-58
2021/11/07 02:12:21;;;;;;;6.03;4.53;;;;;;;;;;5035015;28;20037;-59
2021/11/07 02:14:46;;;;;;;10.95;6.22;;;;;;;;;;5034964;28;20487;-59
2021/11/07 02:17:13;;;;;;;7.40;5.40;;;;;;;;;;5036766;28;20353;-59
2021/11/07 02:19:42;;;;;;;14.20;5.13;;;;;;;;;;5038811;28;20033;-58
2021/11/07 02:22:07;;;;;;;11.02;5.90;;;;;;;;;;5034262;28;20107;-58
2021/11/07 02:24:35;;;;;;;9.18;5.97;;;;;;;;;;5036051;28;20120;-58
2021/11/07 02:27:02;;;;;;;9.13;5.32;;;;;;;;;;5033403;28;20534;-59
2021/11/07 02:29:29;;;;;;;6.75;4.75;;;;;;;;;;5035897;28;20505;-58
2021/11/07 02:31:56;;;;;;;7.85;6.00;;;;;;;;;;5035303;28;20040;-58
2021/11/07 02:34:27;;;;;;;8.10;6.22;;;;;;;;;;5034966;28;20080;-58
2021/11/07 02:36:53;;;;;;;5.50;4.95;;;;;;;;;;5035160;28;20119;-58
2021/11/07 02:39:20;;;;;;;6.38;5.47;;;;;;;;;;5033620;28;20652;-58
2021/11/07 02:41:46;;;;;;;7.40;6.57;;;;;;;;;;5035755;28;20367;-58
2021/11/07 02:44:33;;;;;;;6.35;5.13;;;;;;;;;;5034681;28;20523;-58
2021/11/07 02:47:04;;;;;;;7.38;6.20;;;;;;;;;;5036573;28;20037;-58
2021/11/07 02:49:29;;;;;;;10.68;7.03;;;;;;;;;;5034441;28;20120;-58
2021/11/07 02:51:57;;;;;;;6.07;4.95;;;;;;;;;;5033986;28;20510;-58
2021/11/07 02:54:23;;;;;;;6.63;5.93;;;;;;;;;;5033468;28;20120;-58
2021/11/07 02:56:50;;;;;;;5.78;5.18;;;;;;;;;;5034495;28;20033;-58
2021/11/07 02:59:22;;;;;;;6.78;5.28;;;;;;;;;;5037479;28;20358;-58
2021/11/07 03:01:47;;;;;;;;;;;;;;;;;;5035781;28;20562;-58
2021/11/07 03:04:13;;;;;;;6.53;5.38;;;;;;;;;;5033118;28;19923;-58
2021/11/07 03:06:38;;;;;;;5.20;4.70;;;;;;;;;;5032000;28;20419;-58
2021/11/07 03:09:05;;;;;;;5.60;4.80;;;;;;;;;;5036236;28;20043;-60
2021/11/07 03:11:35;;;;;;;7.60;5.25;;;;;;;;;;5032464;28;20033;-60
2021/11/07 03:14:08;;;;;;;6.25;5.65;;;;;;;;;;5036747;28;20033;-60
2021/11/07 03:16:34;;;;;;;4.80;4.28;;;;;;;;;;5029796;28;20029;-61
2021/11/07 03:18:59;;;;;;;7.20;5.65;;;;;;;;;;5035214;28;20025;-61
2021/11/07 03:21:25;;;;;;;5.47;4.55;;;;;;;;;;5037568;28;20091;-60
2021/11/07 03:23:51;;;;;;;7.07;4.78;;;;;;;;;;5033925;28;20540;-60
2021/11/07 03:26:21;;;;;;;9.15;6.07;;;;;;;;;;5035778;28;20048;-60
2021/11/07 03:28:48;;;;;;;4.97;4.47;;;;;;;;;;5037549;28;20109;-60
2021/11/07 03:31:17;;;;;;;13.18;6.68;;;;;;;;;;5036387;28;20045;-61
2021/11/07 03:33:46;;;;;;;5.25;4.35;;;;;;;;;;5035750;28;20041;-60
2021/11/07 03:36:17;;;;;;;7.22;5.03;;;;;;;;;;5036714;28;20690;-61
2021/11/07 03:38:44;;;;;;;4.72;4.18;;;;;;;;;;5035626;28;20090;-61
2021/11/07 03:41:10;;;;;;;6.35;5.35;;;;;;;;;;5036517;28;20025;-59
2021/11/07 03:43:36;;;;;;;5.28;4.47;;;;;;;;;;5035566;28;20033;-59
2021/11/07 03:46:02;;;;;;;8.00;5.00;;;;;;;;;;5038071;28;20052;-59
2021/11/07 03:48:27;;;;;;;5.47;4.28;;;;;;;;;;5038515;28;20470;-62
2021/11/07 03:50:53;;;;;;;4.93;4.43;;;;;;;;;;5037980;28;20036;-62
2021/11/07 03:53:19;;;;;;;6.57;4.80;;;;;;;;;;5038556;28;20043;-61
2021/11/07 03:55:44;;;;;;;5.90;5.07;;;;;;;;;;5037952;28;20196;-62
2021/11/07 03:58:10;;;;;;;7.00;4.70;;;;;;;;;;5035838;28;20029;-61
2021/11/07 04:00:36;;;;;;;11.35;5.13;;;;;;;;;;5037398;28;20448;-62
2021/11/07 04:03:04;;;;;;;6.25;4.80;;;;;;;;;;5032175;28;20121;-62
2021/11/07 04:05:30;;;;;;;8.73;4.82;;;;;;;;;;5036936;28;20536;-62
2021/11/07 04:07:56;;;;;;;8.40;4.70;;;;;;;;;;5034157;28;20101;-61
2021/11/07 04:10:24;;;;;;;3.47;3.13;;;;;;;;;;5039873;28;20025;-62
2021/11/07 04:12:50;;;;;;;4.50;3.45;;;;;;;;;;5018602;28;20033;-62
2021/11/07 04:15:16;;;;;;;4.80;4.30;;;;;;;;;;5037642;28;20059;-62
2021/11/07 04:17:42;;;;;;;12.73;4.55;;;;;;;;;;5037996;28;20041;-63
2021/11/07 04:20:08;;;;;;;5.45;4.25;;;;;;;;;;5037275;28;20510;-62
2021/11/07 04:22:34;;;;;;;4.65;3.92;;;;;;;;;;5036361;28;20044;-61
2021/11/07 04:24:59;;;;;;;10.23;4.45;;;;;;;;;;5037680;28;20021;-62
2021/11/07 04:27:25;;;;;;;6.47;4.43;;;;;;;;;;5040776;28;20131;-61
2021/11/07 04:29:51;;;;;;;6.40;4.70;;;;;;;;;;5037097;28;20033;-61
2021/11/07 04:32:17;;;;;;;5.32;4.40;;;;;;;;;;5038968;28;20071;-60
2021/11/07 04:34:43;;;;;;;10.52;4.78;;;;;;;;;;5035668;28;20039;-61
2021/11/07 04:37:08;;;;;;;3.80;3.35;;;;;;;;;;5036853;28;20031;-61
2021/11/07 04:39:34;;;;;;;5.22;4.20;;;;;;;;;;5037912;28;20037;-61
2021/11/07 04:41:59;;;;;;;7.25;5.40;;;;;;;;;;5037423;28;20049;-60
2021/11/07 04:44:25;;;;;;;8.38;4.85;;;;;;;;;;5037150;28;20043;-59
2021/11/07 04:46:51;;;;;;;6.03;4.25;;;;;;;;;;5039215;28;20351;-60
2021/11/07 04:49:17;;;;;;;6.20;4.53;;;;;;;;;;5036254;28;20037;-60
2021/11/07 04:51:44;;;;;;;6.97;5.13;;;;;;;;;;5035010;28;20037;-60
2021/11/07 04:54:10;;;;;;;10.15;5.50;;;;;;;;;;5036805;28;20073;-61
2021/11/07 04:56:36;;;;;;;4.85;4.18;;;;;;;;;;5038948;28;20117;-60
2021/11/07 04:59:02;;;;;;;5.40;4.07;;;;;;;;;;5037390;28;20108;-60
2021/11/07 05:01:28;;;;;;;6.05;4.18;;;;;;;;;;5035797;28;20111;-59
2021/11/07 05:03:53;;;;;;;6.60;4.88;;;;;;;;;;5036371;28;20431;-60
2021/11/07 05:06:19;;;;;;;9.88;6.18;;;;;;;;;;5038694;28;20083;-60
2021/11/07 05:08:44;;;;;;;7.18;5.20;;;;;;;;;;5032205;28;20037;-60
2021/11/07 05:11:10;;;;;;;5.25;4.28;;;;;;;;;;5033523;28;20037;-60
2021/11/07 05:13:35;;;;;;;7.45;5.38;;;;;;;;;;5037914;28;20880;-60
2021/11/07 05:16:00;;;;;;;5.82;4.60;;;;;;;;;;5034915;28;20147;-60
2021/11/07 05:18:26;;;;;;;4.68;3.88;;;;;;;;;;5036258;28;20421;-61
2021/11/07 05:20:52;;;;;;;8.48;4.43;;;;;;;;;;5039139;28;20037;-60
2021/11/07 05:23:18;;;;;;;6.10;4.70;;;;;;;;;;5035833;28;20059;-61
2021/11/07 05:25:44;;;;;;;8.13;5.10;;;;;;;;;;5037714;28;20037;-61
2021/11/07 05:28:10;;;;;;;5.50;4.35;;;;;;;;;;5036411;28;20092;-60
2021/11/07 05:30:36;;;;;;;4.80;4.13;;;;;;;;;;5034353;28;20037;-60
2021/11/07 05:33:02;;;;;;;5.55;4.78;;;;;;;;;;5036787;28;20474;-60
2021/11/07 05:35:28;;;;;;;6.57;4.90;;;;;;;;;;5035758;28;20040;-60
2021/11/07 05:37:53;;;;;;;6.03;5.03;;;;;;;;;;5035371;28;20032;-59
2021/11/07 05:40:19;;;;;;;7.68;5.65;;;;;;;;;;5034109;28;20044;-59
2021/11/07 05:42:46;;;;;;;5.65;4.38;;;;;;;;;;5034095;28;20120;-59
2021/11/07 05:45:12;;;;;;;5.97;5.15;;;;;;;;;;5034877;28;20037;-59
2021/11/07 05:47:38;;;;;;;7.43;5.82;;;;;;;;;;5035139;28;20025;-59
2021/11/07 05:50:06;;;;;;;5.80;3.97;;;;;;;;;;5035186;28;20518;-60
2021/11/07 05:52:31;;;;;;;6.28;4.88;;;;;;;;;;5034989;28;20032;-60
2021/11/07 05:54:58;;;;;;;7.63;4.47;;;;;;;;;;5032205;28;20673;-61
2021/11/07 05:57:24;;;;;;;9.90;5.85;;;;;;;;;;5033077;28;20041;-60
2021/11/07 05:59:49;;;;;;;6.25;4.40;;;;;;;;;;5033607;28;20029;-60
2021/11/07 06:02:15;;;;;;;5.90;5.32;;;;;;;;;;5033676;28;20124;-61
2021/11/07 06:04:41;;;;;;;5.00;4.07;;;;;;;;;;5033278;28;20022;-60
2021/11/07 06:07:07;;;;;;;5.13;4.60;;;;;;;;;;5032319;28;20484;-60
2021/11/07 06:09:32;;;;;;;5.70;5.18;;;;;;;;;;5034834;28;20440;-60
2021/11/07 06:11:58;;;;;;;9.82;5.90;;;;;;;;;;5033770;28;20033;-60
2021/11/07 06:14:23;;;;;;;6.00;4.03;;;;;;;;;;5034285;28;20293;-60
2021/11/07 06:16:49;;;;;;;5.68;4.45;;;;;;;;;;5032540;28;20103;-60
2021/11/07 06:19:14;;;;;;;4.55;3.90;;;;;;;;;;5030887;28;20045;-60
2021/11/07 06:21:41;;;;;;;6.20;4.57;;;;;;;;;;5029479;28;20033;-60
2021/11/07 06:24:11;;;;;;;7.57;3.65;;;;;;;;;;5033022;28;20040;-60
2021/11/07 06:26:37;;;;;;;6.03;4.10;;;;;;;;;;5034874;28;20056;-59
2021/11/07 06:29:02;;;;;;;4.20;3.65;;;;;;;;;;5032814;28;20052;-59
2021/11/07 06:31:28;;;;;;;5.50;4.93;;;;;;;;;;5034427;28;20063;-60
2021/11/07 06:33:53;;;;;;;6.63;3.88;;;;;;;;;;5034350;28;20033;-60
2021/11/07 06:36:19;;;;;;;6.45;5.47;;;;;;;;;;5035871;28;20037;-59
2021/11/07 06:38:44;;;;;;;5.53;4.35;;;;;;;;;;5033263;28;20370;-61
2021/11/07 06:41:10;;;;;;;7.28;5.50;;;;;;;;;;5031319;28;20095;-59
2021/11/07 06:43:36;;;;;;;4.93;4.43;;;;;;;;;;5030184;28;20494;-60
2021/11/07 06:46:01;;;;;;;6.78;6.05;;;;;;;;;;5031174;28;20026;-61
2021/11/07 06:48:28;;;;;;;7.07;4.32;;;;;;;;;;5034402;28;20040;-59
2021/11/07 06:50:53;;;;;;;5.53;4.18;;;;;;;;;;5033564;28;20527;-60
2021/11/07 06:53:19;;;;;;;6.90;5.20;;;;;;;;;;5030623;28;20127;-60
2021/11/07 06:55:45;;;;;;;5.30;4.65;;;;;;;;;;5032348;28;20327;-60
2021/11/07 06:58:11;;;;;;;7.13;5.55;;;;;;;;;;5032493;28;20029;-60
2021/11/07 07:00:37;;;;;;;7.28;5.53;;;;;;;;;;5032862;28;20090;-60
2021/11/07 07:03:02;;;;;;;7.47;5.00;;;;;;;;;;5033368;28;20029;-59
2021/11/07 07:05:28;;;;;;;7.68;4.68;;;;;;;;;;5036043;28;20036;-60
2021/11/07 07:07:56;;;;;;;6.78;4.60;;;;;;;;;;5036375;28;20052;-61
2021/11/07 07:10:28;;;;;;;6.75;5.20;;;;;;;;;;5034027;28;20025;-61
2021/11/07 07:13:02;;;;;;;9.10;4.85;;;;;;;;;;5033900;28;20041;-60
2021/11/07 07:15:31;;;;;;;6.70;5.45;;;;;;;;;;5035914;28;20041;-61
2021/11/07 07:36:03;;;;;;;6.05;4.18;;;;;;;;;;5033144;28;20132;-60
2021/11/07 07:38:29;;;;;;;7.22;5.38;;;;;;;;;;5035858;28;20223;-60
2021/11/07 07:40:55;;;;;;;11.93;4.60;;;;;;;;;;5033836;28;20059;-61
2021/11/07 07:43:21;;;;;;;7.80;4.90;;;;;;;;;;5029922;28;20037;-61
2021/11/07 07:45:46;;;;;;;4.20;3.78;;;;;;;;;;5035155;28;20033;-60
2021/11/07 07:48:12;;;;;;;5.05;3.75;;;;;;;;;;5034862;28;20454;-59
2021/11/07 07:50:40;;;;;;;5.05;4.55;;;;;;;;;;5034090;28;20068;-60
2021/11/07 07:53:07;;;;;;;12.00;4.90;;;;;;;;;;5034606;28;20037;-60
2021/11/07 07:55:33;;;;;;;5.00;4.28;;;;;;;;;;5033265;28;20072;-59
2021/11/07 07:57:58;;;;;;;5.82;4.10;;;;;;;;;;5034049;28;20057;-59
2021/11/07 08:00:25;;;;;;;5.45;3.95;;;;;;;;;;5036160;28;20041;-59
2021/11/07 08:02:51;;;;;;;6.72;5.00;;;;;;;;;;5033816;28;20033;-59
2021/11/07 08:05:17;;;;;;;4.95;4.25;;;;;;;;;;5036001;28;20064;-59
2021/11/07 08:07:43;;;;;;;15.05;5.18;;;;;;;;;;5035615;28;20025;-60
2021/11/07 08:10:14;;;;;;;8.50;5.07;;;;;;;;;;5035908;28;20402;-58
2021/11/07 08:12:40;;;;;;;7.68;4.85;;;;;;;;;;5032280;28;20045;-59
2021/11/07 08:15:07;;;;;;;6.20;4.90;;;;;;;;;;5035473;28;20085;-60
2021/11/07 08:17:34;;;;;;;4.65;4.13;;;;;;;;;;5035708;28;20048;-59
2021/11/07 08:20:02;;;;;;;5.10;3.72;;;;;;;;;;5035452;28;20041;-59
2021/11/07 08:22:28;;;;;;;5.28;4.40;;;;;;;;;;5033290;28;20344;-59
2021/11/07 08:24:53;;;;;;;8.15;5.47;;;;;;;;;;5035570;28;20266;-59
2021/11/07 08:27:19;;;;;;;4.88;4.18;;;;;;;;;;5033850;28;20029;-59
2021/11/07 08:29:50;;;;;;;7.38;5.70;;;;;;;;;;5035184;28;20128;-60
2021/11/07 08:32:16;;;;;;;6.65;4.50;;;;;;;;;;5039881;28;20121;-59
2021/11/07 08:34:41;;;;;;;5.82;4.10;;;;;;;;;;5036131;28;20424;-60
2021/11/07 08:37:09;;;;;;;4.38;3.55;;;;;;;;;;5038688;28;20424;-59
2021/11/07 08:39:53;;;;;;;3.40;3.03;;;;;;;;;;5036638;28;20916;-60
2021/11/07 09:01:25;;;;;;;4.80;3.47;;;;;;;;;;5039335;28;20097;-61
2021/11/07 09:07:18;;;;;;;5.25;4.25;;;;;;;;;;5036475;28;20435;-59
2021/11/07 09:09:13;;;;;;;8.75;4.53;;;;;;;;;;5032258;28;20049;-60
2021/11/07 09:11:48;;;;;;;5.57;4.63;;;;;;;;;;5035938;28;20065;-60
2021/11/07 09:14:14;;;;;;;6.63;3.75;;;;;;;;;;5035077;28;20120;-62
2021/11/07 09:16:39;;;;;;;4.45;3.75;;;;;;;;;;5031334;28;20800;-62
2021/11/07 09:19:05;;;;;;;4.22;3.83;;;;;;;;;;5035360;28;20493;-61
2021/11/07 09:21:36;;;;;;;4.97;3.80;;;;;;;;;;5035885;28;20041;-62
2021/11/07 09:24:07;;;;;;;5.10;4.20;;;;;;;;;;5035222;28;20044;-61
2021/11/07 09:26:41;;;;;;;6.07;4.40;;;;;;;;;;5040105;28;20072;-60
2021/11/07 09:29:10;;;;;;;3.53;3.17;;;;;;;;;;5036831;28;20513;-60
2021/11/07 09:32:03;;;;;;;4.97;3.63;;;;;;;;;;5030592;28;20068;-61
2021/11/07 09:34:46;;;;;;;5.95;4.28;;;;;;;;;;5028832;28;20035;-60
2021/11/07 09:37:21;;;;;;;4.93;3.58;;;;;;;;;;5031621;28;20069;-61
2021/11/07 09:39:55;;;;;;;4.90;3.95;;;;;;;;;;5034923;28;20087;-60
2021/11/07 09:44:50;;;;;;;6.30;4.07;;;;;;;;;;5028656;28;20037;-61
2021/11/07 09:47:15;;;;;;;4.30;3.38;;;;;;;;;;5029541;28;20056;-60
2021/11/07 09:49:48;;;;;;;3.58;3.05;;;;;;;;;;5032095;28;20187;-58
2021/11/07 09:52:22;;;;;;;7.80;4.05;;;;;;;;;;5033620;28;20045;-59
2021/11/07 09:54:55;;;;;;;4.50;3.92;;;;;;;;;;5032316;28;20064;-60
2021/11/07 09:57:23;;;;;;;4.55;4.05;;;;;;;;;;5021114;28;20041;-60
2021/11/07 09:59:58;;;;;;;3.40;3.08;;;;;;;;;;5028031;28;20094;-60
2021/11/07 10:02:28;;;;;;;4.50;3.80;;;;;;;;;;5030383;28;20048;-60
2021/11/07 10:04:56;;;;;;;5.35;3.75;;;;;;;;;;5032439;28;20029;-61
2021/11/07 10:07:30;;;;;;;3.58;2.78;;;;;;;;;;5029720;28;20120;-61
2021/11/07 10:09:59;;;;;;;3.47;3.10;;;;;;;;;;5033632;28;20356;-61
2021/11/07 10:12:37;;;;;;;5.13;3.58;;;;;;;;;;5031566;28;20060;-60
2021/11/07 10:15:10;;;;;;;6.82;3.35;;;;;;;;;;5030285;28;20108;-61
2021/11/07 10:17:41;;;;;;;3.38;2.83;;;;;;;;;;5033416;28;20128;-61
2021/11/07 10:22:53;;;;;;;3.63;3.03;;;;;;;;;;5036570;28;20056;-59
2021/11/07 10:25:27;;;;;;;3.90;3.28;;;;;;;;;;5037018;28;20099;-60
2021/11/07 10:27:56;;;;;;;5.72;3.72;;;;;;;;;;5034923;28;20092;-60
2021/11/07 10:30:25;;;;;;;4.57;4.07;;;;;;;;;;5037516;28;20609;-60
2021/11/07 10:33:05;;;;;;;5.20;3.35;;;;;;;;;;5033535;28;20510;-60
2021/11/07 10:41:07;;;;;;;5.35;3.42;;;;;;;;;;5033858;28;20411;-59
2021/11/07 10:46:17;;;;;;;4.10;3.40;;;;;;;;;;5035712;28;20052;-59
2021/11/07 10:54:21;;;;;;;4.63;3.05;;;;;;;;;;5035499;28;20083;-60
2021/11/07 10:57:07;;;;;;;2.58;2.10;;;;;;;;;;5034916;28;20485;-60
2021/11/07 10:59:32;;;;;;;4.97;2.85;;;;;;;;;;5038588;28;20116;-60
2021/11/07 11:01:59;;;;;;;4.25;2.75;;;;;;;;;;5037227;28;20218;-60
2021/11/07 11:04:25;;;;;;;3.13;2.53;;;;;;;;;;5037736;28;20025;-60
2021/11/07 11:06:55;;;;;;;3.45;2.70;;;;;;;;;;5033947;28;20478;-59
2021/11/07 11:09:21;;;;;;;3.03;2.10;;;;;;;;;;5035395;28;20116;-59
2021/11/07 11:11:50;;;;;;;3.25;2.45;;;;;;;;;;5036693;28;20638;-59
2021/11/07 11:19:50;;;;;;;3.20;2.47;;;;;;;;;;5033248;28;20025;-59
2021/11/07 11:32:57;;;;;;;3.60;2.95;;;;;;;;;;5030338;28;20029;-59
2021/11/07 11:35:29;;;;;;;3.22;2.40;;;;;;;;;;5034390;28;20025;-60
2021/11/07 11:42:59;;;;;;;2.97;2.22;;;;;;;;;;5035311;28;20048;-59
2021/11/07 11:45:32;;;;;;;2.60;1.98;;;;;;;;;;5031765;28;20041;-60
2021/11/07 11:48:04;;;;;;;2.65;1.88;;;;;;;;;;5032674;28;20032;-60
2021/11/07 12:01:05;;;;;;;2.95;2.55;;;;;;;;;;5034011;28;20046;-60
2021/11/07 12:03:42;;;;;;;2.88;2.55;;;;;;;;;;5029922;28;20551;-60
2021/11/07 12:06:53;;;;;;;3.00;2.13;;;;;;;;;;5041141;28;20040;-61
2021/11/07 12:09:32;;;;;;;2.40;1.70;;;;;;;;;;5034867;28;20029;-59
2021/11/07 12:14:42;;;;;;;2.70;2.15;;;;;;;;;;5035462;28;20048;-60
2021/11/07 12:17:10;;;;;;;3.92;2.55;;;;;;;;;;5033103;28;20037;-60
2021/11/07 12:19:42;;;;;;;2.80;2.10;;;;;;;;;;5035649;28;20421;-60
2021/11/07 12:22:15;;;;;;;2.97;2.20;;;;;;;;;;5036305;28;20068;-60
2021/11/07 12:24:47;;;;;;;2.67;2.08;;;;;;;;;;5023216;28;20591;-59
2021/11/07 12:27:27;;;;;;;3.47;2.75;;;;;;;;;;5035974;28;20099;-59
2021/11/07 12:30:22;;;;;;;3.00;2.33;;;;;;;;;;5036911;28;20037;-59
2021/11/07 12:32:50;;;;;;;2.80;2.20;;;;;;;;;;5037669;28;20095;-59
2021/11/07 12:35:26;;;;;;;3.90;3.20;;;;;;;;;;5034822;28;20470;-59
2021/11/07 12:40:46;;;;;;;2.50;1.90;;;;;;;;;;5039190;28;20130;-60
2021/11/07 12:43:35;;;;;;;;;;;;;;;;;;5039032;28;20025;-60
2021/11/07 12:49:15;;;;;;;3.50;2.47;;;;;;;;;;5039538;28;20025;-59
2021/11/07 12:51:43;;;;;;;2.88;2.58;;;;;;;;;;5037951;28;20041;-59
2021/11/07 12:54:24;;;;;;;2.60;2.00;;;;;;;;;;5039884;28;20029;-59
2021/11/07 12:56:56;;;;;;;7.53;2.67;;;;;;;;;;5036608;28;20087;-59
2021/11/07 12:59:33;;;;;;;2.72;2.17;;;;;;;;;;5037506;28;20443;-59
2021/11/07 13:02:23;;;;;;;3.13;2.50;;;;;;;;;;5038829;28;20670;-59
2021/11/07 13:05:01;;;;;;;3.17;2.17;;;;;;;;;;5036387;28;20172;-60
2021/11/07 13:07:33;;;;;;;3.72;2.60;;;;;;;;;;5036846;28;20048;-60
2021/11/07 13:10:06;;;;;;;2.97;2.63;;;;;;;;;;5038539;28;20579;-59
2021/11/07 13:12:37;;;;;;;2.95;2.25;;;;;;;;;;5037332;28;20215;-59
2021/11/07 13:25:54;;;;;;;2.83;2.25;;;;;;;;;;5033924;28;20016;-59
2021/11/07 13:31:13;;;;;;;2.90;2.45;;;;;;;;;;5039204;28;20393;-59
2021/11/07 13:33:41;;;;;;;2.80;2.17;;;;;;;;;;5036576;28;20037;-59
2021/11/07 13:36:08;;;;;;;2.90;2.38;;;;;;;;;;5039736;28;20029;-59
2021/11/07 13:38:41;;;;;;;3.30;2.90;;;;;;;;;;5036720;28;20041;-59
2021/11/07 13:41:16;;;;;;;3.13;2.78;;;;;;;;;;5038421;28;20033;-59
2021/11/07 13:43:45;;;;;;;3.38;2.92;;;;;;;;;;5033378;28;20037;-59
2021/11/07 13:46:12;;;;;;;3.85;2.85;;;;;;;;;;5037087;28;20056;-59
2021/11/07 13:48:37;;;;;;;3.00;2.50;;;;;;;;;;5034215;28;20034;-59
2021/11/07 13:51:04;;;;;;;3.50;2.75;;;;;;;;;;5033091;28;20021;-59
2021/11/07 13:53:36;;;;;;;2.85;2.47;;;;;;;;;;5035102;28;20041;-59
2021/11/07 13:56:12;;;;;;;3.80;2.95;;;;;;;;;;5036577;28;20063;-59
2021/11/07 13:58:41;;;;;;;2.80;2.25;;;;;;;;;;5033029;28;20040;-58
2021/11/07 14:01:13;;;;;;;3.75;3.22;;;;;;;;;;5037829;28;20093;-58
2021/11/07 14:03:41;;;;;;;6.20;2.80;;;;;;;;;;5035025;28;20069;-59
2021/11/07 14:08:49;;;;;;;3.22;2.50;;;;;;;;;;5037188;28;20068;-59
2021/11/07 14:11:17;;;;;;;2.95;2.47;;;;;;;;;;5036647;28;20033;-59
2021/11/07 14:13:49;;;;;;;3.25;2.83;;;;;;;;;;5036632;28;20431;-59
2021/11/07 14:16:17;;;;;;;2.80;2.40;;;;;;;;;;5036468;28;20395;-59
2021/11/07 14:18:47;;;;;;;3.80;2.72;;;;;;;;;;5037818;28;20100;-59
2021/11/07 14:21:15;;;;;;;3.00;2.70;;;;;;;;;;5034631;28;20041;-59
2021/11/07 14:26:20;;;;;;;3.17;2.88;;;;;;;;;;5034543;28;20060;-59
2021/11/07 14:31:36;;;;;;;3.30;2.67;;;;;;;;;;5032313;28;20033;-59
2021/11/07 14:44:50;;;;;;;3.10;2.50;;;;;;;;;;5034600;28;20354;-59
2021/11/07 14:50:14;;;;;;;3.33;2.90;;;;;;;;;;5034556;28;20034;-59
2021/11/07 14:55:42;;;;;;;3.15;2.67;;;;;;;;;;5016833;28;20520;-59
2021/11/07 15:01:00;;;;;;;3.20;2.88;;;;;;;;;;5026617;28;20029;-59
2021/11/07 15:03:34;;;;;;;2.97;2.47;;;;;;;;;;5034105;28;20112;-59
2021/11/07 15:09:07;;;;;;;3.20;2.60;;;;;;;;;;5035559;28;20051;-59
2021/11/07 15:14:32;;;;;;;3.10;2.70;;;;;;;;;;5033099;28;20051;-59
2021/11/07 15:17:13;;;;;;;5.60;3.92;;;;;;;;;;5032708;28;20029;-59
2021/11/07 15:19:49;;;;;;;2.80;2.28;;;;;;;;;;5033434;28;20029;-59
2021/11/07 15:22:21;;;;;;;3.75;2.97;;;;;;;;;;5033687;28;20041;-59
2021/11/07 15:24:47;;;;;;;3.53;2.60;;;;;;;;;;5031408;28;20044;-59
2021/11/07 15:27:22;;;;;;;3.10;2.60;;;;;;;;;;5032475;28;20029;-59
2021/11/07 15:30:05;;;;;;;2.78;2.10;;;;;;;;;;5032623;28;20026;-59
2021/11/07 15:32:36;;;;;;;3.25;2.90;;;;;;;;;;5030926;28;20095;-60
2021/11/07 15:35:15;;;;;;;5.28;2.97;;;;;;;;;;5033268;28;20075;-59
2021/11/07 15:37:40;;;;;;;3.45;2.85;;;;;;;;;;5033974;28;20072;-59
2021/11/07 15:40:08;;;;;;;5.28;2.70;;;;;;;;;;5042529;28;20061;-59
2021/11/07 15:42:36;;;;;;;3.97;3.13;;;;;;;;;;5040921;28;20071;-59
2021/11/07 15:45:08;;;;;;;2.85;2.38;;;;;;;;;;5040394;28;20025;-59
2021/11/07 15:47:40;;;;;;;3.17;2.85;;;;;;;;;;5039952;28;20025;-58
2021/11/07 15:50:23;;;;;;;2.85;2.33;;;;;;;;;;5041336;28;20033;-59
2021/11/07 15:53:06;;;;;;;3.05;2.33;;;;;;;;;;5040940;28;20033;-59
2021/11/07 15:58:31;;;;;;;2.97;2.67;;;;;;;;;;5036696;28;20029;-59
2021/11/07 16:01:08;;;;;;;2.92;2.40;;;;;;;;;;5039588;28;20033;-59
2021/11/07 16:03:42;;;;;;;3.85;2.72;;;;;;;;;;5039579;28;20040;-59
2021/11/07 16:09:09;;;;;;;3.78;3.08;;;;;;;;;;5038074;28;20111;-59
2021/11/07 16:11:45;;;;;;;3.55;2.90;;;;;;;;;;5041354;28;20166;-59
2021/11/07 16:16:49;;;;;;;7.70;6.85;;;;;;;;;;5041154;28;20029;-60
2021/11/07 16:19:23;;;;;;;5.43;4.82;;;;;;;;;;5041129;28;20052;-60
2021/11/07 16:21:50;;;;;;;7.10;6.40;;;;;;;;;;5041102;28;20048;-61
2021/11/07 16:24:18;;;;;;;3.10;2.63;;;;;;;;;;5038852;28;20040;-60
2021/11/07 16:26:46;;;;;;;3.42;2.88;;;;;;;;;;5040401;28;20370;-60
2021/11/07 16:29:12;;;;;;;2.90;2.53;;;;;;;;;;5042550;28;20035;-60
2021/11/07 16:31:53;;;;;;;2.80;2.50;;;;;;;;;;5039310;28;20033;-60
2021/11/07 16:34:19;;;;;;;;;;;;;;;;;;5038717;28;20044;-59
2021/11/07 16:36:47;;;;;;;3.25;2.83;;;;;;;;;;5042408;28;19917;-59
2021/11/07 16:39:16;;;;;;;3.40;2.70;;;;;;;;;;5039629;28;20044;-60
2021/11/07 16:41:46;;;;;;;3.22;2.75;;;;;;;;;;5041020;28;20037;-60
2021/11/07 16:44:14;;;;;;;2.97;2.53;;;;;;;;;;5040853;28;20036;-60
2021/11/07 16:47:04;;;;;;;2.85;2.22;;;;;;;;;;5039647;28;20126;-60
2021/11/07 16:49:29;;;;;;;2.95;2.08;;;;;;;;;;5039540;28;20049;-61
2021/11/07 16:54:39;;;;;;;3.55;2.53;;;;;;;;;;5035835;28;20386;-60
2021/11/07 16:57:05;;;;;;;2.92;2.08;;;;;;;;;;5035776;28;20090;-60
2021/11/07 16:59:54;;;;;;;2.95;2.47;;;;;;;;;;5034808;28;20041;-61
2021/11/07 17:02:26;;;;;;;3.78;2.72;;;;;;;;;;5032065;28;20472;-61
2021/11/07 17:07:45;;;;;;;2.63;1.80;;;;;;;;;;5032631;28;20029;-60
2021/11/07 17:10:11;;;;;;;3.22;2.30;;;;;;;;;;5030254;28;20418;-60
2021/11/07 17:12:39;;;;;;;2.83;1.95;;;;;;;;;;5032762;28;20520;-60
2021/11/07 17:15:21;;;;;;;2.83;2.28;;;;;;;;;;5037523;28;20102;-61
2021/11/07 17:17:58;;;;;;;3.80;3.05;;;;;;;;;;5036615;28;20104;-60
2021/11/07 17:20:50;;;;;;;3.30;2.55;;;;;;;;;;5035301;28;20043;-60
2021/11/07 17:28:24;;;;;;;3.17;2.38;;;;;;;;;;5028582;28;20120;-61
2021/11/07 17:35:49;;;;;;;2.75;2.20;;;;;;;;;;5033375;28;20120;-61
2021/11/07 17:38:26;;;;;;;3.38;2.53;;;;;;;;;;5032844;28;20167;-60
2021/11/07 17:54:32;;;;;;;4.45;2.50;;;;;;;;;;5019287;28;20106;-60
2021/11/07 17:57:00;;;;;;;3.20;2.90;;;;;;;;;;5036081;28;20068;-60
2021/11/07 17:59:26;;;;;;;2.90;2.22;;;;;;;;;;5033358;28;20037;-60
2021/11/07 18:01:53;;;;;;;2.70;2.15;;;;;;;;;;5034107;28;20021;-61
2021/11/07 18:04:20;;;;;;;3.30;2.60;;;;;;;;;;5035004;28;20052;-61
2021/11/07 18:06:58;;;;;;;2.95;2.50;;;;;;;;;;5035456;28;20058;-60
2021/11/07 18:09:31;;;;;;;2.75;2.30;;;;;;;;;;5032049;28;20040;-60
2021/11/07 18:11:58;;;;;;;3.95;2.65;;;;;;;;;;5033972;28;20377;-60
2021/11/07 18:14:24;;;;;;;4.55;2.28;;;;;;;;;;5036021;28;20448;-60
2021/11/07 18:16:52;;;;;;;3.70;2.75;;;;;;;;;;5033327;28;20035;-59
2021/11/07 18:19:18;;;;;;;6.00;2.25;;;;;;;;;;5036013;28;20044;-59
2021/11/07 18:22:03;;;;;;;3.05;2.47;;;;;;;;;;5033531;28;20041;-60
2021/11/07 18:24:33;;;;;;;2.83;2.25;;;;;;;;;;5034571;28;20041;-60
2021/11/07 18:27:02;;;;;;;3.50;3.00;;;;;;;;;;5035322;28;20064;-60
2021/11/07 18:29:28;;;;;;;2.75;2.22;;;;;;;;;;5033330;28;20036;-60
2021/11/07 18:31:53;;;;;;;3.65;2.53;;;;;;;;;;5033202;28;20414;-59